LRSV - SUCEAVA/STEFAN CEL MARE - SUCEAVA

Compiled: 17:59:23 on 22/07/2018

Latest METAR/SPECI Reports

SPECI LRSV 221750Z 24016KT 9999 TS SCT045CB 23/15 Q1009=

Previous reports

METAR LRSV 221730Z 25011KT 9999 SCT045CB 20/14 Q1009=
METAR COR LRSV 221700Z 24015KT 9999 SCT045CB 21/14 Q1009=
METAR LRSV 221700Z AUTO 24015KT 9999 FEW095/// 21/14 Q1009=
SPECI LRSV 221644Z 24016KT 9999 SCT045CB 23/15 Q1009=

Latest TAF report

TAF LRSV 221700Z 2218/2303 24010KT 9999 SCT045CB TEMPO 2218/2220 VRB15G25KT 5000 -TSRA BECMG 2220/2222 32006KT NSC=

Valid WARNINGS

LRSV WS WRNG 1 VALID 221755/221855 WS IN APCH FCST=
LRSV AD WRNG 2 VALID 221735/221835 TS FCST INTSF=